Houston, Alaska
Current Conditions -  °F | °C
As of 9:36 AM on Thursday 27 Nov 2014 (Local Time) from PAWS Reporting Station
Overcast Overcast  
Wind Chill:   Ceiling: 100
Heat Index:   Visibility: 0mi
Dew Point:   Wind: 0mph
Humidity: 73%   Direction: NA
Pressure: 30.2"   Gusts: NA
Location:  61.63°N, 149.82°W
Report Text: PAWS 271836Z AUTO 00000KT M1/4SM OVC001 M13/M17 A3020 RMK AO1
Loading
Personal Weather Stations






























Interactive Weather Map New forecast layout! Learn more

10-Day Weather Forecast

Advertisements
Track Severe Weather on mobile